Time;durP1;ratioP1;P1;durP2;ratioP2;P2;SDS_P1;SDS_P2;PMS_P1;PMS_P2;Temp;Humidity;BMP_temperature;BMP_pressure;BME280_temperature;BME280_humidity;BME280_pressure;Samples;Min_cycle;Max_cycle;Signal;HPM_P1;HPM_P2
2022/08/06 00:01:38;;;;;;;19.12;15.32;;;;;;;18.77;78.40;100690.45;1772673;79;21182;-56
2022/08/06 00:04:44;;;;;;;16.73;15.03;;;;;;;18.74;78.50;100689.48;1776050;79;21225;-55
2022/08/06 00:07:51;;;;;;;18.40;16.00;;;;;;;18.77;78.67;100690.45;1769240;80;21233;-55
2022/08/06 00:11:01;;;;;;;17.92;16.10;;;;;;;18.79;78.74;100681.35;1769061;80;21229;-55
2022/08/06 00:14:09;;;;;;;17.42;15.50;;;;;;;18.80;78.77;100682.22;1769335;80;21162;-56
2022/08/06 00:17:15;;;;;;;21.35;16.87;;;;;;;18.81;78.84;100676.44;1770035;80;21252;-55
2022/08/06 00:20:21;;;;;;;17.80;15.90;;;;;;;18.81;78.92;100684.77;1768789;80;21636;-55
2022/08/06 00:23:29;;;;;;;19.07;16.73;;;;;;;18.83;79.01;100685.40;1768669;80;21209;-56
2022/08/06 00:26:37;;;;;;;22.40;15.20;;;;;;;18.86;79.10;100691.03;1769945;79;21245;-56
2022/08/06 00:29:46;;;;;;;17.95;16.05;;;;;;;18.88;79.14;100688.37;1772121;79;21182;-56
2022/08/06 00:32:56;;;;;;;21.50;17.07;;;;;;;18.89;79.17;100683.64;1769358;80;21209;-56
2022/08/06 00:36:03;;;;;;;17.92;15.70;;;;;;;18.89;79.18;100684.50;1773069;79;21173;-56
2022/08/06 00:39:12;;;;;;;18.00;15.78;;;;;;;18.89;79.20;100687.80;1773841;81;21319;-56
2022/08/06 00:42:18;;;;;;;18.67;16.42;;;;;;;18.88;79.21;100684.20;1809871;79;21209;-56
2022/08/06 00:45:25;;;;;;;18.02;16.02;;;;;;;18.84;79.11;100677.37;1784901;79;21161;-57
2022/08/06 00:48:33;;;;;;;18.15;15.83;;;;;;;18.82;79.19;100671.75;1809452;79;21189;-56
2022/08/06 00:51:40;;;;;;;17.90;16.00;;;;;;;18.83;79.31;100670.67;1779651;80;21160;-54
2022/08/06 00:54:49;;;;;;;17.73;15.93;;;;;;;18.83;79.35;100676.22;1766677;81;21200;-55
2022/08/06 00:57:54;;;;;;;17.35;15.50;;;;;;;18.79;79.35;100671.64;1778319;79;21205;-55
2022/08/06 01:01:02;;;;;;;19.80;15.68;;;;;;;18.79;79.46;100675.80;1765721;81;21555;-56
2022/08/06 01:04:10;;;;;;;18.10;15.50;;;;;;;18.80;79.54;100667.81;1765690;81;21235;-56
2022/08/06 01:07:16;;;;;;;19.30;16.12;;;;;;;18.81;79.57;100670.89;1765677;81;21208;-55
2022/08/06 01:10:24;;;;;;;18.75;16.30;;;;;;;18.78;79.54;100663.02;1779710;79;21241;-55
2022/08/06 01:13:33;;;;;;;18.90;16.77;;;;;;;18.75;79.48;100666.77;1809438;79;21188;-55
2022/08/06 01:16:57;;;;;;;19.67;15.95;;;;;;;18.71;79.49;100666.91;1808742;79;21164;-56
2022/08/06 01:20:40;;;;;;;18.90;15.72;;;;;;;18.65;79.52;100661.70;1775481;80;21153;-54
2022/08/06 01:24:10;;;;;;;17.45;15.72;;;;;;;18.61;79.65;100653.52;1795334;79;21197;-56
2022/08/06 01:27:59;;;;;;;17.42;15.45;;;;;;;18.61;79.86;100645.20;1809142;79;21204;-56
2022/08/06 01:31:19;;;;;;;18.48;16.32;;;;;;;18.62;79.97;100651.58;1800486;79;21196;-54
2022/08/06 01:34:43;;;;;;;16.90;15.25;;;;;;;18.62;80.13;100656.59;1809755;79;21824;-56
2022/08/06 01:38:08;;;;;;;16.80;15.10;;;;;;;18.64;80.23;100657.23;1798860;79;21383;-56
2022/08/06 01:44:44;;;;;;;17.48;15.70;;;;;;;18.66;80.28;100653.68;1770798;81;21204;-55
2022/08/06 01:47:53;;;;;;;17.07;15.23;;;;;;;18.64;80.29;100650.83;1744387;82;21201;-56
2022/08/06 01:51:02;;;;;;;16.67;14.98;;;;;;;18.63;80.31;100649.96;1792821;79;21177;-55
2022/08/06 01:54:13;;;;;;;16.57;14.80;;;;;;;18.63;80.38;100655.51;1769062;80;21162;-55
2022/08/06 01:57:22;;;;;;;19.57;15.50;;;;;;;18.62;80.41;100655.20;1767447;81;21181;-55
2022/08/06 02:00:29;;;;;;;16.80;15.10;;;;;;;18.62;80.46;100651.05;1805087;79;21204;-57
2022/08/06 02:03:44;;;;;;;16.80;15.10;;;;;;;18.62;80.50;100646.89;1766913;81;21202;-56
2022/08/06 02:06:54;;;;;;;17.55;15.68;;;;;;;18.65;80.57;100646.44;1806099;79;21197;-56
2022/08/06 02:10:00;;;;;;;18.02;15.28;;;;;;;18.68;80.69;100644.61;1768965;80;21181;-57
2022/08/06 02:13:09;;;;;;;16.25;14.15;;;;;;;18.72;80.76;100652.81;1783568;79;21209;-55
2022/08/06 02:16:18;;;;;;;18.17;14.05;;;;;;;18.77;80.80;100648.84;1770017;81;21241;-55
2022/08/06 02:19:26;;;;;;;19.90;15.95;;;;;;;18.80;80.90;100649.78;1806359;79;21252;-56
2022/08/06 02:22:37;;;;;;;17.27;15.35;;;;;;;18.86;80.98;100645.25;1769977;81;21382;-55
2022/08/06 02:25:46;;;;;;;19.37;15.90;;;;;;;18.90;81.04;100637.64;1769146;81;21702;-55
2022/08/06 02:28:53;;;;;;;16.17;14.58;;;;;;;18.92;81.04;100639.66;1796533;79;21236;-55
2022/08/06 02:31:59;;;;;;;17.50;14.93;;;;;;;18.96;81.05;100642.29;1806374;79;21232;-56
2022/08/06 02:35:09;;;;;;;17.20;14.07;;;;;;;18.98;81.07;100637.37;1806340;79;21252;-54
2022/08/06 02:38:33;;;;;;;15.75;13.25;;;;;;;19.01;81.09;100648.02;1806417;79;21343;-56
2022/08/06 02:41:47;;;;;;;;;;;;;;;19.03;81.12;100642.25;1782780;80;21236;-55
2022/08/06 02:45:04;;;;;;;16.20;14.15;;;;;;;19.03;81.11;100645.02;1768246;79;20585;-54
2022/08/06 02:48:53;;;;;;;16.85;14.43;;;;;;;19.00;81.09;100638.01;1771593;80;21363;-55
2022/08/06 02:52:08;;;;;;;18.23;14.65;;;;;;;18.99;81.15;100641.88;1778150;79;21240;-55
2022/08/06 02:55:21;;;;;;;15.08;13.58;;;;;;;18.98;81.20;100635.16;1771786;81;21667;-56
2022/08/06 02:58:40;;;;;;;15.45;13.85;;;;;;;18.97;81.29;100639.84;1777906;79;21233;-57
2022/08/06 03:02:03;;;;;;;18.23;13.83;;;;;;;18.98;81.36;100638.77;1778887;80;21256;-57
2022/08/06 03:05:14;;;;;;;15.68;14.07;;;;;;;18.98;81.36;100649.86;1770610;81;21185;-57
2022/08/06 03:08:28;;;;;;;17.25;15.05;;;;;;;18.99;81.43;100641.88;1778301;80;21177;-56
2022/08/06 03:11:40;;;;;;;16.20;13.50;;;;;;;19.02;81.49;100654.44;1769043;81;21172;-56
2022/08/06 03:14:46;;;;;;;15.90;14.20;;;;;;;19.04;81.58;100650.34;1761370;80;21196;-56
2022/08/06 03:17:58;;;;;;;17.82;13.85;;;;;;;19.04;81.51;100654.51;1770810;80;21264;-56
2022/08/06 03:21:03;;;;;;;17.37;14.03;;;;;;;19.05;81.55;100653.45;1770600;80;21185;-57
2022/08/06 03:24:09;;;;;;;15.78;14.13;;;;;;;19.09;81.67;100659.41;1771177;81;21169;-56
2022/08/06 03:27:16;;;;;;;16.23;14.53;;;;;;;19.11;81.72;100662.79;1763902;80;21186;-55
2022/08/06 03:30:24;;;;;;;15.08;13.58;;;;;;;19.17;81.79;100664.70;1771491;80;21217;-56
2022/08/06 03:33:31;;;;;;;14.78;13.28;;;;;;;19.18;81.79;100665.86;1773569;79;21225;-56
2022/08/06 03:36:38;;;;;;;15.98;13.72;;;;;;;19.21;81.80;100666.80;1757587;80;21339;-56
2022/08/06 03:39:47;;;;;;;15.90;14.30;;;;;;;19.23;81.80;100665.17;1755373;80;21170;-56
2022/08/06 03:42:56;;;;;;;18.02;15.50;;;;;;;19.25;81.86;100665.25;1768412;80;21213;-55
2022/08/06 03:46:09;;;;;;;18.23;14.83;;;;;;;19.28;81.86;100677.33;1768475;81;21216;-57
2022/08/06 03:49:20;;;;;;;18.87;16.87;;;;;;;19.30;81.81;100672.94;1768455;81;21240;-56
2022/08/06 03:52:31;;;;;;;22.82;16.32;;;;;;;19.31;81.84;100667.71;1767971;80;21249;-56
2022/08/06 03:55:41;;;;;;;18.02;16.12;;;;;;;19.30;81.76;100671.02;1768442;81;21165;-56
2022/08/06 03:58:48;;;;;;;16.90;15.13;;;;;;;19.30;81.75;100676.57;1757729;81;21204;-55
2022/08/06 04:01:56;;;;;;;17.73;15.35;;;;;;;19.31;81.79;100678.26;1768552;80;21245;-56
2022/08/06 04:05:02;;;;;;;17.25;15.18;;;;;;;19.32;81.85;100674.95;1768361;81;21173;-56
2022/08/06 04:08:10;;;;;;;17.27;15.20;;;;;;;19.31;81.81;100675.48;1768320;80;21166;-54
2022/08/06 04:11:18;;;;;;;17.32;15.60;;;;;;;19.27;81.73;100672.83;1768477;80;21146;-55
2022/08/06 04:14:27;;;;;;;16.60;14.83;;;;;;;19.24;81.76;100673.28;1763285;79;21162;-55
2022/08/06 04:17:35;;;;;;;18.67;16.32;;;;;;;19.22;81.90;100676.81;1768558;80;21202;-54
2022/08/06 04:20:41;;;;;;;21.15;17.15;;;;;;;19.25;82.06;100693.02;1768422;81;21217;-54
2022/08/06 04:23:51;;;;;;;20.02;17.07;;;;;;;19.34;82.26;100693.08;1757931;81;21260;-56
2022/08/06 04:27:01;;;;;;;18.12;16.12;;;;;;;19.43;82.37;100686.72;1768432;80;21189;-56
2022/08/06 04:30:08;;;;;;;17.35;15.55;;;;;;;19.52;82.51;100691.47;1768178;80;21225;-56
2022/08/06 04:33:19;;;;;;;20.08;16.67;;;;;;;19.59;82.57;100689.47;1768361;80;21913;-56
2022/08/06 04:36:27;;;;;;;17.92;16.02;;;;;;;19.71;82.70;100687.67;1768482;81;21276;-56
2022/08/06 04:39:35;;;;;;;18.30;16.32;;;;;;;19.87;82.81;100687.09;1768446;80;21174;-55
2022/08/06 04:42:43;;;;;;;20.00;17.05;;;;;;;20.01;82.84;100686.70;1781022;80;21172;-54
2022/08/06 04:45:50;;;;;;;19.73;16.52;;;;;;;20.16;82.87;100690.02;1796014;79;21232;-54
2022/08/06 04:48:58;;;;;;;19.32;17.02;;;;;;;20.26;82.92;100683.38;1801402;79;21394;-55
2022/08/06 04:52:06;;;;;;;18.55;16.65;;;;;;;20.37;83.01;100690.09;1755395;80;21201;-55
2022/08/06 04:55:13;;;;;;;18.15;15.70;;;;;;;20.50;83.14;100684.37;1768128;80;21202;-55
2022/08/06 04:58:23;;;;;;;18.42;16.45;;;;;;;20.62;83.23;100684.75;1764236;79;21220;-56
2022/08/06 05:01:31;;;;;;;16.93;15.15;;;;;;;20.74;83.31;100690.35;1767480;80;21647;-56
2022/08/06 05:04:40;;;;;;;18.37;16.17;;;;;;;20.82;83.26;100692.81;1766610;81;21240;-55
2022/08/06 05:07:46;;;;;;;19.62;16.02;;;;;;;20.85;83.19;100686.80;1767640;80;21280;-56
2022/08/06 05:11:03;;;;;;;19.05;17.00;;;;;;;20.89;83.16;100692.20;1767669;80;21363;-56
2022/08/06 05:14:13;;;;;;;18.77;16.80;;;;;;;20.90;83.10;100694.45;1767927;80;21194;-55
2022/08/06 05:17:20;;;;;;;22.07;17.80;;;;;;;20.95;83.13;100689.03;1769192;79;21221;-55
2022/08/06 05:20:28;;;;;;;19.50;16.42;;;;;;;21.02;83.12;100689.27;1768029;80;21217;-56
2022/08/06 05:23:44;;;;;;;18.98;16.73;;;;;;;21.08;83.20;100684.67;1770030;79;21369;-56
2022/08/06 05:26:52;;;;;;;18.67;16.55;;;;;;;21.22;83.29;100690.34;1786207;79;21196;-55
2022/08/06 05:30:02;;;;;;;19.25;17.27;;;;;;;21.33;83.34;100691.77;1789664;79;21371;-55
2022/08/06 05:33:11;;;;;;;18.75;16.67;;;;;;;21.46;83.32;100691.57;1758883;79;21262;-57
2022/08/06 05:36:19;;;;;;;17.48;15.70;;;;;;;21.57;83.36;100693.53;1753000;82;21242;-55
2022/08/06 05:39:30;;;;;;;19.70;16.50;;;;;;;21.69;83.38;100698.56;1752672;82;21369;-56
2022/08/06 05:42:38;;;;;;;20.27;16.67;;;;;;;21.79;83.32;100691.89;1745131;79;21263;-55
2022/08/06 05:45:47;;;;;;;19.95;16.55;;;;;;;21.87;83.32;100690.14;1726876;83;21778;-56
2022/08/06 05:49:04;;;;;;;18.42;16.07;;;;;;;21.99;83.32;100688.76;1728205;80;21235;-55
2022/08/06 05:52:30;;;;;;;18.17;15.83;;;;;;;22.09;83.29;100686.19;1727551;82;21207;-56
2022/08/06 05:56:05;;;;;;;18.23;14.65;;;;;;;22.18;83.21;100686.97;1727312;82;21236;-55
2022/08/06 05:59:28;;;;;;;18.67;14.93;;;;;;;22.24;83.20;100687.95;1754957;81;21252;-56
2022/08/06 06:02:41;;;;;;;19.42;15.95;;;;;;;22.26;83.00;100691.89;1736707;82;21959;-56
2022/08/06 06:05:51;;;;;;;20.85;16.00;;;;;;;22.21;82.85;100689.27;1736877;82;21718;-56
2022/08/06 06:08:58;;;;;;;16.65;14.90;;;;;;;22.19;82.81;100687.29;1736713;82;21221;-56
2022/08/06 06:12:10;;;;;;;19.32;17.07;;;;;;;22.18;82.83;100681.95;1741050;80;21228;-56
2022/08/06 06:15:20;;;;;;;20.17;16.05;;;;;;;22.20;82.89;100686.19;1744884;81;21169;-55
2022/08/06 06:19:17;;;;;;;18.67;16.67;;;;;;;22.27;83.02;100688.84;1726356;82;21766;-56
2022/08/06 06:22:34;;;;;;;19.10;16.17;;;;;;;22.39;83.06;100684.66;1736472;81;21216;-56
2022/08/06 06:25:46;;;;;;;18.20;16.40;;;;;;;22.57;83.27;100686.77;1736956;81;21972;-56
2022/08/06 06:29:07;;;;;;;19.35;16.55;;;;;;;22.74;83.34;100687.67;1737270;82;21197;-56
2022/08/06 06:32:38;;;;;;;18.77;16.77;;;;;;;22.90;83.33;100690.22;1737887;82;21674;-56
2022/08/06 06:36:06;;;;;;;18.25;15.68;;;;;;;23.03;83.33;100686.60;1741204;81;21347;-57
2022/08/06 06:39:34;;;;;;;18.65;15.72;;;;;;;23.17;83.40;100687.13;1738700;81;21325;-56
2022/08/06 06:43:03;;;;;;;19.10;15.45;;;;;;;23.30;83.40;100690.52;1738261;82;21374;-56
2022/08/06 06:46:37;;;;;;;15.65;13.98;;;;;;;23.42;83.39;100684.29;1667737;85;21233;-56
2022/08/06 06:49:53;;;;;;;15.03;11.97;;;;;;;23.55;83.45;100687.30;1670390;85;21178;-57
2022/08/06 06:53:01;;;;;;;13.88;12.43;;;;;;;23.70;83.48;100689.52;1706661;84;21259;-55
2022/08/06 06:56:01;;;;;;;13.70;11.08;;;;;;;23.84;83.41;100685.28;1713689;83;21240;-55
2022/08/06 06:59:26;;;;;;;12.80;11.40;;;;;;;23.98;83.50;100687.51;1676232;84;21217;-57
2022/08/06 07:02:41;;;;;;;12.47;10.75;;;;;;;24.17;83.51;100695.06;1676704;84;21236;-55
2022/08/06 07:05:54;;;;;;;12.00;10.08;;;;;;;24.35;83.42;100684.44;1712463;83;21184;-56
2022/08/06 07:09:03;;;;;;;11.35;9.88;;;;;;;24.49;83.28;100677.36;1654403;85;21225;-56
2022/08/06 07:12:13;;;;;;;12.88;10.82;;;;;;;24.62;83.18;100681.17;1672885;86;21216;-56
2022/08/06 07:15:23;;;;;;;11.57;10.23;;;;;;;24.72;83.10;100672.91;1704573;83;21184;-57
2022/08/06 07:18:32;;;;;;;14.07;10.45;;;;;;;24.81;83.01;100671.37;1704093;84;21240;-55
2022/08/06 07:21:41;;;;;;;13.03;10.32;;;;;;;24.91;82.99;100668.66;1704557;84;21268;-56
2022/08/06 07:24:51;;;;;;;10.48;9.48;;;;;;;24.97;82.79;100663.41;1705870;81;21232;-55
2022/08/06 07:28:00;;;;;;;13.30;9.30;;;;;;;25.03;82.77;100662.38;1750227;81;21268;-56
2022/08/06 07:31:12;;;;;;;10.50;9.38;;;;;;;25.11;82.72;100661.05;1767960;80;21363;-58
2022/08/06 07:34:27;;;;;;;10.20;8.98;;;;;;;25.20;82.73;100665.64;1736552;82;21170;-58
2022/08/06 07:37:43;;;;;;;9.45;8.50;;;;;;;25.29;82.73;100657.85;1747680;80;21366;-58
2022/08/06 07:40:58;;;;;;;8.93;7.83;;;;;;;25.38;82.67;100663.87;1760398;81;21197;-57
2022/08/06 07:44:10;;;;;;;11.35;8.05;;;;;;;25.48;82.74;100663.98;1776572;79;21327;-58
2022/08/06 07:47:19;;;;;;;8.38;7.35;;;;;;;25.58;82.68;100667.70;1795690;79;21252;-58
2022/08/06 07:50:28;;;;;;;9.80;6.55;;;;;;;25.67;82.59;100672.28;1768480;80;21702;-58
2022/08/06 07:53:38;;;;;;;8.43;7.37;;;;;;;25.74;82.40;100672.88;1784747;79;21697;-58
2022/08/06 07:57:04;;;;;;;7.47;6.70;;;;;;;25.78;82.14;100669.27;1748588;82;21224;-56
2022/08/06 08:00:36;;;;;;;8.80;7.05;;;;;;;25.83;81.97;100669.89;1818618;78;21318;-58
2022/08/06 08:07:16;;;;;;;8.88;6.60;;;;;;;25.94;81.84;100669.67;1728865;83;21266;-58
2022/08/06 08:10:26;;;;;;;11.73;7.70;;;;;;;26.01;81.75;100654.05;1701193;84;21216;-57
2022/08/06 08:13:34;;;;;;;12.73;6.55;;;;;;;26.08;81.73;100662.54;1621949;87;21346;-56
2022/08/06 08:16:43;;;;;;;10.30;7.22;;;;;;;26.14;81.61;100660.59;1657976;86;21268;-56
2022/08/06 08:19:54;;;;;;;8.28;6.62;;;;;;;26.21;81.55;100658.41;1633601;87;21300;-56
2022/08/06 08:23:06;;;;;;;10.40;6.72;;;;;;;26.28;81.48;100657.59;1669211;84;21435;-57
2022/08/06 08:26:16;;;;;;;8.63;6.80;;;;;;;26.37;81.50;100652.59;1632262;84;21241;-56
2022/08/06 08:29:25;;;;;;;9.03;6.72;;;;;;;26.45;81.44;100658.23;1678154;83;21221;-57
2022/08/06 08:32:32;;;;;;;10.88;6.42;;;;;;;26.53;81.33;100657.72;1696051;84;21190;-55
2022/08/06 08:35:40;;;;;;;8.15;6.55;;;;;;;26.60;81.26;100655.52;1696603;84;21766;-55
2022/08/06 08:38:52;;;;;;;9.70;6.80;;;;;;;26.65;81.16;100649.95;1690719;84;21185;-57
2022/08/06 08:42:20;;;;;;;9.63;7.23;;;;;;;26.74;81.09;100662.89;1696755;84;21201;-56
2022/08/06 08:45:27;;;;;;;7.78;6.25;;;;;;;26.81;80.95;100648.05;1697134;84;21618;-56
2022/08/06 08:48:34;;;;;;;8.50;6.75;;;;;;;26.90;80.80;100650.05;1696315;84;21213;-58
2022/08/06 08:51:47;;;;;;;9.78;6.47;;;;;;;26.98;80.67;100650.05;1672069;84;21509;-57
2022/08/06 08:55:01;;;;;;;11.48;6.30;;;;;;;27.06;80.59;100648.97;1696712;84;21861;-57
2022/08/06 08:58:10;;;;;;;;;;;;;;;27.16;80.48;100651.78;1698900;84;21363;-56
2022/08/06 09:01:18;;;;;;;7.65;6.17;;;;;;;27.24;80.35;100649.83;1696730;84;20198;-55
2022/08/06 09:04:28;;;;;;;7.37;6.33;;;;;;;27.31;80.35;100656.63;1696761;84;21336;-56
2022/08/06 09:07:46;;;;;;;7.20;6.25;;;;;;;27.36;80.25;100655.23;1659155;84;21805;-57
2022/08/06 09:10:56;;;;;;;6.92;5.97;;;;;;;27.41;80.21;100657.50;1705428;84;21793;-57
2022/08/06 09:14:10;;;;;;;8.00;5.87;;;;;;;27.49;80.08;100651.32;1670053;84;21291;-55
2022/08/06 09:17:17;;;;;;;7.90;6.22;;;;;;;27.57;79.96;100651.31;1670244;84;21381;-56
2022/08/06 09:20:26;;;;;;;7.00;5.95;;;;;;;27.64;79.70;100652.72;1678946;83;21353;-58
2022/08/06 09:23:34;;;;;;;12.85;6.05;;;;;;;27.72;79.62;100656.38;1692056;84;21269;-57
2022/08/06 09:26:43;;;;;;;7.72;5.80;;;;;;;27.81;79.54;100663.12;1690596;83;21230;-58
2022/08/06 09:30:02;;;;;;;8.43;6.15;;;;;;;27.91;79.47;100648.81;1693933;84;21204;-57
2022/08/06 09:33:23;;;;;;;7.20;5.72;;;;;;;27.98;79.25;100641.76;1660428;83;21267;-57
2022/08/06 09:36:34;;;;;;;9.25;5.92;;;;;;;28.04;79.09;100651.02;1655557;84;21800;-58
2022/08/06 09:39:46;;;;;;;8.98;5.65;;;;;;;28.12;79.07;100645.67;1690920;82;21200;-56
2022/08/06 09:42:57;;;;;;;6.17;5.30;;;;;;;28.21;78.93;100643.13;1653896;84;21817;-58
2022/08/06 09:46:07;;;;;;;6.80;5.37;;;;;;;28.27;78.80;100643.39;1656711;84;21229;-56
2022/08/06 09:49:22;;;;;;;9.43;5.72;;;;;;;28.35;78.64;100642.80;1693726;82;21196;-56
2022/08/06 09:52:33;;;;;;;10.55;5.40;;;;;;;28.41;78.35;100647.28;1654641;84;21252;-57
2022/08/06 09:55:45;;;;;;;8.80;5.08;;;;;;;28.44;78.01;100636.84;1657384;83;21322;-58
2022/08/06 09:58:57;;;;;;;6.35;5.15;;;;;;;28.52;77.88;100641.92;1616099;87;21825;-57
2022/08/06 10:02:11;;;;;;;5.37;4.78;;;;;;;28.59;77.64;100641.06;1654553;83;21244;-58
2022/08/06 10:05:32;;;;;;;5.20;4.70;;;;;;;28.64;77.35;100632.56;1683052;82;21663;-58
2022/08/06 10:08:41;;;;;;;8.50;5.00;;;;;;;28.71;77.23;100638.75;1700029;83;21777;-59
2022/08/06 10:11:49;;;;;;;8.30;5.40;;;;;;;28.78;77.06;100641.52;1688632;83;21275;-58
2022/08/06 10:15:00;;;;;;;10.63;6.30;;;;;;;28.83;76.98;100634.45;1686185;83;21704;-54
2022/08/06 10:18:12;;;;;;;8.20;5.20;;;;;;;28.91;77.00;100635.81;1667869;84;21222;-57
2022/08/06 10:21:25;;;;;;;7.65;5.58;;;;;;;28.96;76.76;100629.59;1682631;85;21792;-57
2022/08/06 10:24:40;;;;;;;6.60;5.40;;;;;;;29.04;76.62;100630.95;1657770;85;21392;-56
2022/08/06 10:27:50;;;;;;;8.65;5.42;;;;;;;29.12;76.48;100636.87;1664737;86;21210;-57
2022/08/06 10:30:57;;;;;;;6.97;5.08;;;;;;;29.22;76.37;100635.95;1633980;87;21415;-57
2022/08/06 10:34:23;;;;;;;8.50;5.60;;;;;;;29.33;76.19;100639.54;1701525;83;21252;-58
2022/08/06 10:37:34;;;;;;;6.90;5.03;;;;;;;29.44;76.09;100627.89;1702555;84;21249;-58
2022/08/06 10:40:49;;;;;;;7.28;5.33;;;;;;;29.56;75.95;100633.99;1702681;84;21280;-57
2022/08/06 10:43:56;;;;;;;6.50;5.30;;;;;;;29.63;75.65;100631.69;1702485;83;21255;-58
2022/08/06 10:47:06;;;;;;;11.57;5.50;;;;;;;29.73;75.53;100631.61;1702664;83;21272;-57
2022/08/06 10:50:16;;;;;;;9.15;4.95;;;;;;;29.79;75.30;100631.02;1687900;83;21234;-57
2022/08/06 10:53:24;;;;;;;7.72;4.87;;;;;;;29.87;75.19;100624.73;1675953;85;21257;-57
2022/08/06 10:56:32;;;;;;;6.72;4.67;;;;;;;29.97;74.93;100616.98;1691441;82;21210;-57
2022/08/06 10:59:39;;;;;;;6.00;5.35;;;;;;;30.03;74.63;100620.62;1655738;86;21233;-55
2022/08/06 11:03:06;;;;;;;7.42;5.72;;;;;;;30.12;74.43;100621.64;1674461;85;21276;-57
2022/08/06 11:06:21;;;;;;;6.12;4.60;;;;;;;30.15;74.00;100623.86;1680230;84;21244;-56
2022/08/06 11:09:49;;;;;;;7.83;4.58;;;;;;;30.15;74.00;100623.86;1683375;85;21212;-58
2022/08/06 11:13:27;;;;;;;11.93;5.03;;;;;;;30.23;73.79;100621.83;1691101;84;22082;-56
2022/08/06 11:16:38;;;;;;;7.37;5.05;;;;;;;30.39;73.80;100627.58;1683124;85;21205;-58
2022/08/06 11:19:54;;;;;;;5.65;4.58;;;;;;;30.55;73.53;100627.11;1699803;84;21229;-57
2022/08/06 11:23:07;;;;;;;8.53;4.72;;;;;;;30.69;73.37;100634.28;1696695;84;21755;-56
2022/08/06 11:26:16;;;;;;;5.60;4.45;;;;;;;30.84;72.98;100634.69;1694186;84;21201;-58
2022/08/06 11:29:23;;;;;;;5.85;4.30;;;;;;;30.92;72.43;100626.34;1683416;85;21229;-57
2022/08/06 11:32:53;;;;;;;7.05;4.67;;;;;;;30.99;72.41;100624.00;1669888;85;21237;-57
2022/08/06 11:36:05;;;;;;;5.37;4.00;;;;;;;31.05;72.17;100622.77;1711648;82;21239;-56
2022/08/06 11:39:15;;;;;;;6.83;4.50;;;;;;;31.17;72.07;100626.56;1726951;82;21214;-57
2022/08/06 11:42:30;;;;;;;8.30;4.42;;;;;;;31.26;71.81;100628.97;1674936;84;21236;-57
2022/08/06 11:45:37;;;;;;;5.40;4.37;;;;;;;31.30;71.39;100628.64;1714743;83;21220;-57
2022/08/06 11:49:12;;;;;;;11.93;4.45;;;;;;;31.34;71.19;100631.14;1691770;84;21664;-57
2022/08/06 11:52:41;;;;;;;6.08;4.28;;;;;;;31.39;70.83;100631.06;1694856;83;21282;-57
2022/08/06 11:56:10;;;;;;;5.15;3.83;;;;;;;31.41;70.41;100629.59;1669399;83;21213;-58
2022/08/06 11:59:27;;;;;;;8.90;4.28;;;;;;;31.42;70.13;100630.45;1718766;83;21747;-57
2022/08/06 12:02:54;;;;;;;8.73;4.87;;;;;;;31.46;69.93;100618.20;1683935;85;21336;-57
2022/08/06 12:06:01;;;;;;;6.53;3.80;;;;;;;31.52;69.65;100617.55;1666984;83;21321;-56
2022/08/06 12:09:20;;;;;;;6.45;3.72;;;;;;;31.54;69.21;100613.25;1678364;85;21743;-58
2022/08/06 12:12:37;;;;;;;6.97;4.00;;;;;;;31.56;68.83;100614.36;1694162;84;21828;-56
2022/08/06 12:15:49;;;;;;;7.67;4.10;;;;;;;31.57;68.56;100607.56;1694032;84;21238;-58
2022/08/06 12:19:00;;;;;;;8.18;3.70;;;;;;;31.57;68.35;100605.55;1688328;84;21179;-58
2022/08/06 12:22:08;;;;;;;5.30;3.20;;;;;;;31.56;67.99;100601.05;1646604;87;21229;-58
2022/08/06 12:25:18;;;;;;;9.30;3.67;;;;;;;31.57;67.73;100612.63;1646229;87;21229;-57
2022/08/06 12:28:28;;;;;;;5.12;4.12;;;;;;;31.57;67.41;100610.40;1646924;87;21241;-57
2022/08/06 12:31:39;;;;;;;5.60;3.60;;;;;;;31.55;67.05;100607.88;1646797;87;21274;-56
2022/08/06 12:34:49;;;;;;;5.55;4.30;;;;;;;31.51;66.67;100598.30;1646798;87;21185;-57
2022/08/06 12:38:03;;;;;;;4.85;3.83;;;;;;;31.46;66.42;100593.31;1675820;85;21240;-57
2022/08/06 12:41:17;;;;;;;7.87;3.70;;;;;;;31.43;66.25;100594.76;1647373;86;21202;-58
2022/08/06 12:44:25;;;;;;;7.58;3.30;;;;;;;31.44;66.04;100596.45;1674649;85;21356;-58
2022/08/06 12:47:33;;;;;;;4.67;3.30;;;;;;;31.42;65.73;100591.67;1674239;85;21253;-57
2022/08/06 12:50:42;;;;;;;5.75;3.70;;;;;;;31.42;65.47;100596.48;1664380;86;21242;-57
2022/08/06 12:54:03;;;;;;;7.37;3.85;;;;;;;31.39;65.12;100588.61;1665624;86;21234;-58
2022/08/06 12:57:11;;;;;;;4.47;3.42;;;;;;;31.35;64.89;100589.80;1663928;86;21735;-57
2022/08/06 13:00:19;;;;;;;7.05;3.30;;;;;;;31.31;64.65;100584.50;1677945;84;21228;-57
2022/08/06 13:03:29;;;;;;;5.75;3.83;;;;;;;31.28;64.38;100577.16;1664812;86;21258;-57
2022/08/06 13:06:38;;;;;;;5.45;3.52;;;;;;;31.28;64.16;100572.91;1667786;85;21277;-58
2022/08/06 13:09:50;;;;;;;5.35;3.02;;;;;;;31.27;63.89;100581.15;1645111;85;21230;-57
2022/08/06 13:13:12;;;;;;;7.40;2.98;;;;;;;31.28;63.67;100581.41;1669652;85;21258;-57
2022/08/06 13:16:21;;;;;;;11.40;3.05;;;;;;;31.28;63.39;100570.08;1676415;84;21230;-58
2022/08/06 13:19:29;;;;;;;5.47;3.40;;;;;;;31.27;63.08;100572.06;1676083;85;21207;-57
2022/08/06 13:22:38;;;;;;;5.40;3.60;;;;;;;31.27;62.81;100567.81;1675912;85;21375;-58
2022/08/06 13:25:57;;;;;;;10.40;3.00;;;;;;;31.28;62.59;100567.25;1675946;85;21298;-57
2022/08/06 13:29:28;;;;;;;5.60;3.20;;;;;;;31.30;62.35;100572.05;1695586;84;21359;-58
2022/08/06 13:32:40;;;;;;;9.08;3.52;;;;;;;31.28;62.08;100568.67;1695233;84;21237;-57
2022/08/06 13:35:48;;;;;;;6.80;3.77;;;;;;;31.29;61.90;100576.00;1695968;84;21216;-58
2022/08/06 13:39:03;;;;;;;6.17;3.67;;;;;;;31.30;61.65;100566.38;1695994;84;21722;-58
2022/08/06 13:42:16;;;;;;;6.60;3.65;;;;;;;31.32;61.44;100564.09;1696239;84;21540;-58
2022/08/06 13:45:31;;;;;;;9.78;3.05;;;;;;;31.32;61.25;100574.00;1671611;85;21230;-57
2022/08/06 13:48:39;;;;;;;5.53;2.70;;;;;;;31.33;60.97;100565.23;1677235;85;21241;-58
2022/08/06 13:51:50;;;;;;;4.53;2.65;;;;;;;31.33;60.71;100570.04;1690906;85;21309;-58
2022/08/06 13:54:56;;;;;;;4.33;2.37;;;;;;;31.29;60.42;100573.17;1674278;85;21361;-58
2022/08/06 13:58:08;;;;;;;6.00;2.50;;;;;;;31.27;60.14;100569.23;1687623;85;21185;-58
2022/08/06 14:01:21;;;;;;;3.58;2.42;;;;;;;31.25;59.78;100565.05;1668737;86;21169;-58
2022/08/06 14:04:34;;;;;;;3.27;2.58;;;;;;;31.20;59.56;100565.97;1668594;85;21709;-57
2022/08/06 14:07:43;;;;;;;2.52;2.17;;;;;;;31.19;59.38;100566.28;1670797;84;21819;-57
2022/08/06 14:10:56;;;;;;;5.17;2.40;;;;;;;31.19;59.16;100569.93;1671620;86;21189;-57
2022/08/06 14:14:06;;;;;;;5.08;2.77;;;;;;;31.22;58.84;100564.25;1671306;86;21214;-57
2022/08/06 14:17:23;;;;;;;4.28;2.40;;;;;;;31.21;58.50;100566.79;1670846;86;21234;-58
2022/08/06 14:20:32;;;;;;;4.80;2.50;;;;;;;31.19;58.26;100560.62;1671081;86;21759;-57
2022/08/06 14:23:39;;;;;;;8.60;3.10;;;;;;;31.17;58.12;100567.16;1670908;86;21290;-58
2022/08/06 14:26:47;;;;;;;5.67;2.47;;;;;;;31.14;57.93;100567.20;1673109;83;21182;-57
2022/08/06 14:29:56;;;;;;;8.48;2.45;;;;;;;31.13;57.74;100563.27;1671069;86;21222;-56
2022/08/06 14:33:09;;;;;;;4.22;2.30;;;;;;;31.12;57.55;100563.84;1672057;82;21230;-57
2022/08/06 14:36:17;;;;;;;5.90;2.42;;;;;;;31.11;57.32;100562.73;1672548;84;21254;-57
2022/08/06 14:39:26;;;;;;;8.80;2.62;;;;;;;31.09;57.12;100565.02;1673421;84;21191;-56
2022/08/06 14:45:59;;;;;;;5.97;2.40;;;;;;;31.06;56.85;100567.05;1679399;83;21319;-56
2022/08/06 14:49:07;;;;;;;6.60;2.50;;;;;;;31.04;56.42;100566.50;1686106;85;21231;-58
2022/08/06 14:52:12;;;;;;;4.15;2.08;;;;;;;31.01;56.32;100565.70;1686097;84;21231;-58
2022/08/06 14:55:20;;;;;;;5.22;2.40;;;;;;;30.98;56.17;100560.66;1685833;83;21215;-58